sensor_id;sensor_type;location;lat;lon;timestamp;P1;durP1;ratioP1;P2;durP2;ratioP2
73283;SDS011;61519;60.050;18.582;2024-03-08T00:02:24;3.97;;;1.85;;
73283;SDS011;61519;60.050;18.582;2024-03-08T00:04:49;5.20;;;1.73;;
73283;SDS011;61519;60.050;18.582;2024-03-08T00:07:15;4.43;;;1.67;;
73283;SDS011;61519;60.050;18.582;2024-03-08T00:09:40;5.77;;;1.57;;
73283;SDS011;61519;60.050;18.582;2024-03-08T00:12:06;3.40;;;1.80;;
73283;SDS011;61519;60.050;18.582;2024-03-08T00:14:31;3.53;;;1.60;;
73283;SDS011;61519;60.050;18.582;2024-03-08T00:16:57;3.75;;;1.73;;
73283;SDS011;61519;60.050;18.582;2024-03-08T00:19:22;3.93;;;1.57;;
73283;SDS011;61519;60.050;18.582;2024-03-08T00:21:47;4.33;;;1.60;;
73283;SDS011;61519;60.050;18.582;2024-03-08T00:24:13;3.83;;;1.60;;
73283;SDS011;61519;60.050;18.582;2024-03-08T00:26:39;4.40;;;1.30;;
73283;SDS011;61519;60.050;18.582;2024-03-08T00:29:04;3.97;;;1.80;;
73283;SDS011;61519;60.050;18.582;2024-03-08T00:31:29;2.67;;;1.13;;
73283;SDS011;61519;60.050;18.582;2024-03-08T00:33:56;4.38;;;1.75;;
73283;SDS011;61519;60.050;18.582;2024-03-08T00:36:22;4.33;;;2.20;;
73283;SDS011;61519;60.050;18.582;2024-03-08T00:38:47;3.00;;;1.58;;
73283;SDS011;61519;60.050;18.582;2024-03-08T00:41:13;3.17;;;1.37;;
73283;SDS011;61519;60.050;18.582;2024-03-08T00:43:38;3.97;;;1.60;;
73283;SDS011;61519;60.050;18.582;2024-03-08T00:46:04;3.10;;;1.50;;
73283;SDS011;61519;60.050;18.582;2024-03-08T00:48:29;3.08;;;1.27;;
73283;SDS011;61519;60.050;18.582;2024-03-08T00:50:56;3.65;;;1.95;;
73283;SDS011;61519;60.050;18.582;2024-03-08T00:53:22;3.17;;;1.48;;
73283;SDS011;61519;60.050;18.582;2024-03-08T00:55:47;3.10;;;1.57;;
73283;SDS011;61519;60.050;18.582;2024-03-08T00:58:14;3.55;;;1.55;;
73283;SDS011;61519;60.050;18.582;2024-03-08T01:00:39;5.30;;;1.90;;
73283;SDS011;61519;60.050;18.582;2024-03-08T01:03:05;3.87;;;1.63;;
73283;SDS011;61519;60.050;18.582;2024-03-08T01:05:31;3.55;;;1.60;;
73283;SDS011;61519;60.050;18.582;2024-03-08T01:07:57;3.57;;;1.47;;
73283;SDS011;61519;60.050;18.582;2024-03-08T01:10:22;3.67;;;1.52;;
73283;SDS011;61519;60.050;18.582;2024-03-08T01:12:48;4.70;;;1.70;;
73283;SDS011;61519;60.050;18.582;2024-03-08T01:15:14;4.73;;;1.80;;
73283;SDS011;61519;60.050;18.582;2024-03-08T01:17:40;5.70;;;1.70;;
73283;SDS011;61519;60.050;18.582;2024-03-08T01:20:06;3.67;;;1.60;;
73283;SDS011;61519;60.050;18.582;2024-03-08T01:22:32;4.18;;;1.60;;
73283;SDS011;61519;60.050;18.582;2024-03-08T01:24:58;3.47;;;1.57;;
73283;SDS011;61519;60.050;18.582;2024-03-08T01:27:23;3.63;;;1.48;;
73283;SDS011;61519;60.050;18.582;2024-03-08T01:29:50;4.27;;;1.50;;
73283;SDS011;61519;60.050;18.582;2024-03-08T01:32:15;3.80;;;1.85;;
73283;SDS011;61519;60.050;18.582;2024-03-08T01:34:41;11.63;;;3.10;;
73283;SDS011;61519;60.050;18.582;2024-03-08T01:37:07;28.73;;;4.60;;
73283;SDS011;61519;60.050;18.582;2024-03-08T01:39:32;24.37;;;4.90;;
73283;SDS011;61519;60.050;18.582;2024-03-08T01:41:58;27.73;;;4.75;;
73283;SDS011;61519;60.050;18.582;2024-03-08T01:44:24;13.60;;;3.13;;
73283;SDS011;61519;60.050;18.582;2024-03-08T01:46:50;10.30;;;3.17;;
73283;SDS011;61519;60.050;18.582;2024-03-08T01:49:17;7.78;;;2.15;;
73283;SDS011;61519;60.050;18.582;2024-03-08T01:51:45;6.60;;;1.92;;
73283;SDS011;61519;60.050;18.582;2024-03-08T01:54:13;3.60;;;1.48;;
73283;SDS011;61519;60.050;18.582;2024-03-08T01:56:41;4.80;;;2.08;;
73283;SDS011;61519;60.050;18.582;2024-03-08T01:59:07;4.78;;;1.90;;
73283;SDS011;61519;60.050;18.582;2024-03-08T02:01:33;3.42;;;1.35;;
73283;SDS011;61519;60.050;18.582;2024-03-08T02:03:59;4.13;;;1.67;;
73283;SDS011;61519;60.050;18.582;2024-03-08T02:06:25;3.70;;;1.77;;
73283;SDS011;61519;60.050;18.582;2024-03-08T02:08:50;5.45;;;2.08;;
73283;SDS011;61519;60.050;18.582;2024-03-08T02:11:16;5.97;;;2.17;;
73283;SDS011;61519;60.050;18.582;2024-03-08T02:13:42;4.85;;;2.00;;
73283;SDS011;61519;60.050;18.582;2024-03-08T02:16:08;5.53;;;1.73;;
73283;SDS011;61519;60.050;18.582;2024-03-08T02:18:33;4.95;;;1.98;;
73283;SDS011;61519;60.050;18.582;2024-03-08T02:21:00;8.80;;;2.03;;
73283;SDS011;61519;60.050;18.582;2024-03-08T02:23:27;4.53;;;1.88;;
73283;SDS011;61519;60.050;18.582;2024-03-08T02:25:54;5.28;;;1.75;;
73283;SDS011;61519;60.050;18.582;2024-03-08T02:28:20;6.20;;;1.83;;
73283;SDS011;61519;60.050;18.582;2024-03-08T02:30:46;4.38;;;2.10;;
73283;SDS011;61519;60.050;18.582;2024-03-08T02:33:15;5.05;;;2.17;;
73283;SDS011;61519;60.050;18.582;2024-03-08T02:35:42;4.18;;;1.92;;
73283;SDS011;61519;60.050;18.582;2024-03-08T02:38:12;4.78;;;1.75;;
73283;SDS011;61519;60.050;18.582;2024-03-08T02:40:38;4.50;;;1.52;;
73283;SDS011;61519;60.050;18.582;2024-03-08T02:43:03;6.57;;;2.13;;
73283;SDS011;61519;60.050;18.582;2024-03-08T02:45:30;8.73;;;2.13;;
73283;SDS011;61519;60.050;18.582;2024-03-08T02:47:55;3.60;;;1.52;;
73283;SDS011;61519;60.050;18.582;2024-03-08T02:50:21;6.33;;;2.23;;
73283;SDS011;61519;60.050;18.582;2024-03-08T02:52:47;6.13;;;2.60;;
73283;SDS011;61519;60.050;18.582;2024-03-08T02:55:13;4.97;;;1.87;;
73283;SDS011;61519;60.050;18.582;2024-03-08T02:57:41;6.38;;;2.20;;
73283;SDS011;61519;60.050;18.582;2024-03-08T03:00:07;5.50;;;2.05;;
73283;SDS011;61519;60.050;18.582;2024-03-08T03:02:35;4.23;;;1.80;;
73283;SDS011;61519;60.050;18.582;2024-03-08T03:05:02;5.35;;;1.77;;
73283;SDS011;61519;60.050;18.582;2024-03-08T03:07:30;6.20;;;2.00;;
73283;SDS011;61519;60.050;18.582;2024-03-08T03:09:59;4.87;;;1.60;;
73283;SDS011;61519;60.050;18.582;2024-03-08T03:12:28;4.43;;;2.08;;
73283;SDS011;61519;60.050;18.582;2024-03-08T03:14:54;7.75;;;2.33;;
73283;SDS011;61519;60.050;18.582;2024-03-08T03:17:19;4.07;;;1.73;;
73283;SDS011;61519;60.050;18.582;2024-03-08T03:19:45;4.90;;;1.80;;
73283;SDS011;61519;60.050;18.582;2024-03-08T03:22:11;5.35;;;2.03;;
73283;SDS011;61519;60.050;18.582;2024-03-08T03:24:37;4.57;;;2.13;;
73283;SDS011;61519;60.050;18.582;2024-03-08T03:27:03;5.67;;;1.90;;
73283;SDS011;61519;60.050;18.582;2024-03-08T03:29:35;5.00;;;2.10;;
73283;SDS011;61519;60.050;18.582;2024-03-08T03:32:10;4.65;;;2.13;;
73283;SDS011;61519;60.050;18.582;2024-03-08T03:34:38;4.47;;;1.80;;
73283;SDS011;61519;60.050;18.582;2024-03-08T03:37:05;5.13;;;1.75;;
73283;SDS011;61519;60.050;18.582;2024-03-08T03:39:33;5.53;;;1.98;;
73283;SDS011;61519;60.050;18.582;2024-03-08T03:42:13;4.32;;;1.80;;
73283;SDS011;61519;60.050;18.582;2024-03-08T03:44:39;6.53;;;1.88;;
73283;SDS011;61519;60.050;18.582;2024-03-08T03:47:05;5.20;;;2.03;;
73283;SDS011;61519;60.050;18.582;2024-03-08T03:49:31;4.70;;;2.00;;
73283;SDS011;61519;60.050;18.582;2024-03-08T03:51:58;5.95;;;2.58;;
73283;SDS011;61519;60.050;18.582;2024-03-08T03:54:23;4.03;;;1.80;;
73283;SDS011;61519;60.050;18.582;2024-03-08T03:56:48;7.00;;;2.37;;
73283;SDS011;61519;60.050;18.582;2024-03-08T03:59:17;5.80;;;2.00;;
73283;SDS011;61519;60.050;18.582;2024-03-08T04:01:43;7.20;;;2.33;;
73283;SDS011;61519;60.050;18.582;2024-03-08T04:04:08;4.57;;;1.83;;
73283;SDS011;61519;60.050;18.582;2024-03-08T04:06:34;6.23;;;2.53;;
73283;SDS011;61519;60.050;18.582;2024-03-08T04:08:59;4.50;;;1.90;;
73283;SDS011;61519;60.050;18.582;2024-03-08T04:11:24;6.63;;;2.43;;
73283;SDS011;61519;60.050;18.582;2024-03-08T04:13:50;5.70;;;2.07;;
73283;SDS011;61519;60.050;18.582;2024-03-08T04:16:15;6.05;;;2.35;;
73283;SDS011;61519;60.050;18.582;2024-03-08T04:18:40;8.35;;;2.97;;
73283;SDS011;61519;60.050;18.582;2024-03-08T04:21:06;4.17;;;1.80;;
73283;SDS011;61519;60.050;18.582;2024-03-08T04:23:34;4.30;;;2.10;;
73283;SDS011;61519;60.050;18.582;2024-03-08T04:26:03;5.43;;;2.40;;
73283;SDS011;61519;60.050;18.582;2024-03-08T04:28:29;7.35;;;2.10;;
73283;SDS011;61519;60.050;18.582;2024-03-08T04:30:54;6.73;;;2.00;;
73283;SDS011;61519;60.050;18.582;2024-03-08T04:33:20;5.73;;;2.20;;
73283;SDS011;61519;60.050;18.582;2024-03-08T04:35:46;10.25;;;2.10;;
73283;SDS011;61519;60.050;18.582;2024-03-08T04:38:12;7.63;;;2.30;;
73283;SDS011;61519;60.050;18.582;2024-03-08T04:40:37;4.40;;;2.07;;
73283;SDS011;61519;60.050;18.582;2024-03-08T04:43:03;4.68;;;2.13;;
73283;SDS011;61519;60.050;18.582;2024-03-08T04:45:28;4.50;;;2.20;;
73283;SDS011;61519;60.050;18.582;2024-03-08T04:47:54;5.90;;;1.97;;
73283;SDS011;61519;60.050;18.582;2024-03-08T04:50:19;8.50;;;2.30;;
73283;SDS011;61519;60.050;18.582;2024-03-08T04:52:44;5.53;;;2.15;;
73283;SDS011;61519;60.050;18.582;2024-03-08T04:55:10;4.72;;;1.50;;
73283;SDS011;61519;60.050;18.582;2024-03-08T04:57:35;7.40;;;2.43;;
73283;SDS011;61519;60.050;18.582;2024-03-08T05:00:02;6.30;;;2.33;;
73283;SDS011;61519;60.050;18.582;2024-03-08T05:02:29;5.18;;;2.03;;
73283;SDS011;61519;60.050;18.582;2024-03-08T05:04:55;5.63;;;2.40;;
73283;SDS011;61519;60.050;18.582;2024-03-08T05:07:20;7.70;;;2.10;;
73283;SDS011;61519;60.050;18.582;2024-03-08T05:09:45;4.77;;;2.13;;
73283;SDS011;61519;60.050;18.582;2024-03-08T05:12:16;7.07;;;2.40;;
73283;SDS011;61519;60.050;18.582;2024-03-08T05:14:42;7.28;;;2.10;;
73283;SDS011;61519;60.050;18.582;2024-03-08T05:17:07;5.93;;;2.23;;
73283;SDS011;61519;60.050;18.582;2024-03-08T05:19:32;4.70;;;1.83;;
73283;SDS011;61519;60.050;18.582;2024-03-08T05:21:58;4.78;;;1.70;;
73283;SDS011;61519;60.050;18.582;2024-03-08T05:24:24;5.23;;;2.10;;
73283;SDS011;61519;60.050;18.582;2024-03-08T05:26:49;4.67;;;1.90;;
73283;SDS011;61519;60.050;18.582;2024-03-08T05:29:15;7.90;;;1.70;;
73283;SDS011;61519;60.050;18.582;2024-03-08T05:34:13;4.00;;;2.03;;
73283;SDS011;61519;60.050;18.582;2024-03-08T05:36:40;6.93;;;2.60;;
73283;SDS011;61519;60.050;18.582;2024-03-08T05:39:08;4.68;;;2.10;;
73283;SDS011;61519;60.050;18.582;2024-03-08T05:41:36;7.85;;;2.58;;
73283;SDS011;61519;60.050;18.582;2024-03-08T05:44:01;6.45;;;2.40;;
73283;SDS011;61519;60.050;18.582;2024-03-08T05:46:27;5.07;;;1.90;;
73283;SDS011;61519;60.050;18.582;2024-03-08T05:48:53;7.00;;;2.47;;
73283;SDS011;61519;60.050;18.582;2024-03-08T05:51:19;5.85;;;2.38;;
73283;SDS011;61519;60.050;18.582;2024-03-08T05:53:46;4.82;;;2.65;;
73283;SDS011;61519;60.050;18.582;2024-03-08T05:56:11;4.63;;;2.00;;
73283;SDS011;61519;60.050;18.582;2024-03-08T05:58:36;5.83;;;2.33;;
73283;SDS011;61519;60.050;18.582;2024-03-08T06:01:02;7.87;;;2.13;;
73283;SDS011;61519;60.050;18.582;2024-03-08T06:03:27;6.50;;;2.30;;
73283;SDS011;61519;60.050;18.582;2024-03-08T06:05:52;10.97;;;2.00;;
73283;SDS011;61519;60.050;18.582;2024-03-08T06:08:18;6.50;;;1.77;;
73283;SDS011;61519;60.050;18.582;2024-03-08T06:10:44;5.38;;;2.13;;
73283;SDS011;61519;60.050;18.582;2024-03-08T06:13:09;5.50;;;1.97;;
73283;SDS011;61519;60.050;18.582;2024-03-08T06:15:37;6.13;;;1.90;;
73283;SDS011;61519;60.050;18.582;2024-03-08T06:18:02;6.37;;;1.93;;
73283;SDS011;61519;60.050;18.582;2024-03-08T06:20:27;9.60;;;2.37;;
73283;SDS011;61519;60.050;18.582;2024-03-08T06:22:53;5.50;;;2.17;;
73283;SDS011;61519;60.050;18.582;2024-03-08T06:25:19;6.17;;;1.70;;
73283;SDS011;61519;60.050;18.582;2024-03-08T06:27:46;4.82;;;2.15;;
73283;SDS011;61519;60.050;18.582;2024-03-08T06:30:11;4.63;;;1.80;;
73283;SDS011;61519;60.050;18.582;2024-03-08T06:32:37;6.25;;;2.03;;
73283;SDS011;61519;60.050;18.582;2024-03-08T06:35:06;8.60;;;1.80;;
73283;SDS011;61519;60.050;18.582;2024-03-08T06:37:34;4.00;;;1.70;;
73283;SDS011;61519;60.050;18.582;2024-03-08T06:40:00;7.30;;;2.25;;
73283;SDS011;61519;60.050;18.582;2024-03-08T06:42:29;4.13;;;2.30;;
73283;SDS011;61519;60.050;18.582;2024-03-08T06:45:00;9.70;;;1.75;;
73283;SDS011;61519;60.050;18.582;2024-03-08T06:47:30;4.50;;;1.77;;
73283;SDS011;61519;60.050;18.582;2024-03-08T06:49:55;5.30;;;1.97;;
73283;SDS011;61519;60.050;18.582;2024-03-08T06:52:21;5.03;;;2.07;;
73283;SDS011;61519;60.050;18.582;2024-03-08T06:54:47;3.78;;;1.50;;
73283;SDS011;61519;60.050;18.582;2024-03-08T06:57:13;4.60;;;1.90;;
73283;SDS011;61519;60.050;18.582;2024-03-08T06:59:39;9.33;;;2.07;;
73283;SDS011;61519;60.050;18.582;2024-03-08T07:02:04;4.32;;;1.80;;
73283;SDS011;61519;60.050;18.582;2024-03-08T07:04:29;6.83;;;1.90;;
73283;SDS011;61519;60.050;18.582;2024-03-08T07:06:56;6.23;;;1.90;;
73283;SDS011;61519;60.050;18.582;2024-03-08T07:09:22;4.20;;;1.85;;
73283;SDS011;61519;60.050;18.582;2024-03-08T07:11:49;5.85;;;1.90;;
73283;SDS011;61519;60.050;18.582;2024-03-08T07:14:19;4.45;;;1.90;;
73283;SDS011;61519;60.050;18.582;2024-03-08T07:16:46;5.10;;;1.80;;
73283;SDS011;61519;60.050;18.582;2024-03-08T07:19:12;4.13;;;1.33;;
73283;SDS011;61519;60.050;18.582;2024-03-08T07:21:37;4.90;;;1.50;;
73283;SDS011;61519;60.050;18.582;2024-03-08T07:24:03;4.77;;;1.70;;
73283;SDS011;61519;60.050;18.582;2024-03-08T07:26:43;5.65;;;2.25;;
73283;SDS011;61519;60.050;18.582;2024-03-08T07:29:09;6.95;;;2.08;;
73283;SDS011;61519;60.050;18.582;2024-03-08T07:31:34;5.33;;;1.70;;
73283;SDS011;61519;60.050;18.582;2024-03-08T07:34:10;5.05;;;1.70;;
73283;SDS011;61519;60.050;18.582;2024-03-08T07:36:35;3.73;;;1.60;;
73283;SDS011;61519;60.050;18.582;2024-03-08T07:39:01;4.15;;;1.58;;
73283;SDS011;61519;60.050;18.582;2024-03-08T07:41:27;5.15;;;1.90;;
73283;SDS011;61519;60.050;18.582;2024-03-08T07:43:55;5.50;;;1.90;;
73283;SDS011;61519;60.050;18.582;2024-03-08T07:46:20;5.67;;;1.70;;
73283;SDS011;61519;60.050;18.582;2024-03-08T07:48:45;8.30;;;2.10;;
73283;SDS011;61519;60.050;18.582;2024-03-08T07:51:11;3.80;;;1.50;;
73283;SDS011;61519;60.050;18.582;2024-03-08T07:53:37;6.65;;;1.88;;
73283;SDS011;61519;60.050;18.582;2024-03-08T07:56:03;4.57;;;1.63;;
73283;SDS011;61519;60.050;18.582;2024-03-08T07:58:30;4.43;;;1.80;;
73283;SDS011;61519;60.050;18.582;2024-03-08T08:00:55;11.37;;;2.50;;
73283;SDS011;61519;60.050;18.582;2024-03-08T08:03:21;5.65;;;1.55;;
73283;SDS011;61519;60.050;18.582;2024-03-08T08:05:46;3.90;;;1.80;;
73283;SDS011;61519;60.050;18.582;2024-03-08T08:08:12;7.13;;;1.80;;
73283;SDS011;61519;60.050;18.582;2024-03-08T08:10:37;5.57;;;2.00;;
73283;SDS011;61519;60.050;18.582;2024-03-08T08:13:03;6.80;;;2.28;;
73283;SDS011;61519;60.050;18.582;2024-03-08T08:15:31;9.63;;;1.65;;
73283;SDS011;61519;60.050;18.582;2024-03-08T08:17:59;4.30;;;1.58;;
73283;SDS011;61519;60.050;18.582;2024-03-08T08:20:24;6.47;;;2.20;;
73283;SDS011;61519;60.050;18.582;2024-03-08T08:22:51;4.72;;;1.80;;
73283;SDS011;61519;60.050;18.582;2024-03-08T08:25:16;5.83;;;1.67;;
73283;SDS011;61519;60.050;18.582;2024-03-08T08:27:45;4.57;;;1.60;;
73283;SDS011;61519;60.050;18.582;2024-03-08T08:30:11;6.50;;;2.13;;
73283;SDS011;61519;60.050;18.582;2024-03-08T08:32:37;7.05;;;1.80;;
73283;SDS011;61519;60.050;18.582;2024-03-08T08:35:04;4.38;;;1.63;;
73283;SDS011;61519;60.050;18.582;2024-03-08T08:37:31;4.27;;;1.67;;
73283;SDS011;61519;60.050;18.582;2024-03-08T08:39:57;4.72;;;1.30;;
73283;SDS011;61519;60.050;18.582;2024-03-08T08:42:22;4.80;;;2.40;;
73283;SDS011;61519;60.050;18.582;2024-03-08T08:44:48;5.00;;;1.80;;
73283;SDS011;61519;60.050;18.582;2024-03-08T08:47:15;6.00;;;1.70;;
73283;SDS011;61519;60.050;18.582;2024-03-08T08:49:43;4.37;;;1.90;;
73283;SDS011;61519;60.050;18.582;2024-03-08T08:52:12;10.23;;;1.70;;
73283;SDS011;61519;60.050;18.582;2024-03-08T08:54:37;6.10;;;2.30;;
73283;SDS011;61519;60.050;18.582;2024-03-08T08:57:03;5.77;;;2.53;;
73283;SDS011;61519;60.050;18.582;2024-03-08T08:59:32;5.28;;;2.03;;
73283;SDS011;61519;60.050;18.582;2024-03-08T09:02:04;7.17;;;2.80;;
73283;SDS011;61519;60.050;18.582;2024-03-08T09:04:30;7.78;;;2.05;;
73283;SDS011;61519;60.050;18.582;2024-03-08T09:06:56;5.43;;;2.92;;
73283;SDS011;61519;60.050;18.582;2024-03-08T09:09:21;5.63;;;2.47;;
73283;SDS011;61519;60.050;18.582;2024-03-08T09:11:47;5.72;;;2.58;;
73283;SDS011;61519;60.050;18.582;2024-03-08T09:14:12;4.63;;;1.80;;
73283;SDS011;61519;60.050;18.582;2024-03-08T09:16:38;5.33;;;2.00;;
73283;SDS011;61519;60.050;18.582;2024-03-08T09:19:03;5.17;;;2.33;;
73283;SDS011;61519;60.050;18.582;2024-03-08T09:21:28;5.37;;;1.87;;
73283;SDS011;61519;60.050;18.582;2024-03-08T09:23:54;3.47;;;1.55;;
73283;SDS011;61519;60.050;18.582;2024-03-08T09:26:20;9.93;;;2.10;;
73283;SDS011;61519;60.050;18.582;2024-03-08T09:28:47;4.32;;;1.92;;
73283;SDS011;61519;60.050;18.582;2024-03-08T09:31:12;5.57;;;2.73;;
73283;SDS011;61519;60.050;18.582;2024-03-08T09:33:37;5.23;;;2.50;;
73283;SDS011;61519;60.050;18.582;2024-03-08T09:36:04;5.43;;;2.30;;
73283;SDS011;61519;60.050;18.582;2024-03-08T09:38:32;4.95;;;2.15;;
73283;SDS011;61519;60.050;18.582;2024-03-08T09:40:59;3.40;;;1.58;;
73283;SDS011;61519;60.050;18.582;2024-03-08T09:43:26;4.00;;;1.67;;
73283;SDS011;61519;60.050;18.582;2024-03-08T09:45:53;10.55;;;2.25;;
73283;SDS011;61519;60.050;18.582;2024-03-08T09:48:20;6.63;;;2.65;;
73283;SDS011;61519;60.050;18.582;2024-03-08T09:50:47;5.65;;;2.30;;
73283;SDS011;61519;60.050;18.582;2024-03-08T09:53:13;3.47;;;1.43;;
73283;SDS011;61519;60.050;18.582;2024-03-08T09:55:38;3.78;;;1.70;;
73283;SDS011;61519;60.050;18.582;2024-03-08T09:58:13;3.40;;;1.37;;
73283;SDS011;61519;60.050;18.582;2024-03-08T10:01:03;4.30;;;1.55;;
73283;SDS011;61519;60.050;18.582;2024-03-08T10:03:29;3.42;;;1.58;;
73283;SDS011;61519;60.050;18.582;2024-03-08T10:05:58;3.73;;;1.63;;
73283;SDS011;61519;60.050;18.582;2024-03-08T10:08:27;4.03;;;1.73;;
73283;SDS011;61519;60.050;18.582;2024-03-08T10:10:56;3.25;;;1.40;;
73283;SDS011;61519;60.050;18.582;2024-03-08T10:13:23;3.17;;;1.40;;
73283;SDS011;61519;60.050;18.582;2024-03-08T10:15:50;3.08;;;1.30;;
73283;SDS011;61519;60.050;18.582;2024-03-08T10:18:16;6.13;;;1.53;;
73283;SDS011;61519;60.050;18.582;2024-03-08T10:20:42;3.15;;;1.40;;
73283;SDS011;61519;60.050;18.582;2024-03-08T10:23:08;5.22;;;1.80;;
73283;SDS011;61519;60.050;18.582;2024-03-08T10:25:35;2.53;;;1.03;;
73283;SDS011;61519;60.050;18.582;2024-03-08T10:28:03;3.67;;;1.63;;
73283;SDS011;61519;60.050;18.582;2024-03-08T10:30:32;3.92;;;1.60;;
73283;SDS011;61519;60.050;18.582;2024-03-08T10:32:57;3.40;;;1.50;;
73283;SDS011;61519;60.050;18.582;2024-03-08T10:35:23;3.40;;;1.55;;
73283;SDS011;61519;60.050;18.582;2024-03-08T10:37:49;2.83;;;1.13;;
73283;SDS011;61519;60.050;18.582;2024-03-08T10:40:25;3.05;;;1.10;;
73283;SDS011;61519;60.050;18.582;2024-03-08T10:42:52;2.97;;;1.47;;
73283;SDS011;61519;60.050;18.582;2024-03-08T10:50:53;2.90;;;1.30;;
73283;SDS011;61519;60.050;18.582;2024-03-08T10:53:18;3.22;;;1.00;;
73283;SDS011;61519;60.050;18.582;2024-03-08T10:55:46;3.72;;;1.15;;
73283;SDS011;61519;60.050;18.582;2024-03-08T10:58:12;2.70;;;0.97;;
73283;SDS011;61519;60.050;18.582;2024-03-08T11:00:37;3.30;;;1.10;;
73283;SDS011;61519;60.050;18.582;2024-03-08T11:03:03;2.30;;;0.90;;
73283;SDS011;61519;60.050;18.582;2024-03-08T11:05:36;2.45;;;1.02;;
73283;SDS011;61519;60.050;18.582;2024-03-08T11:08:24;2.97;;;1.13;;
73283;SDS011;61519;60.050;18.582;2024-03-08T11:10:52;5.85;;;2.65;;
73283;SDS011;61519;60.050;18.582;2024-03-08T11:16:02;2.42;;;1.40;;
73283;SDS011;61519;60.050;18.582;2024-03-08T11:18:32;2.47;;;1.20;;
73283;SDS011;61519;60.050;18.582;2024-03-08T11:21:02;2.65;;;1.10;;
73283;SDS011;61519;60.050;18.582;2024-03-08T11:23:32;2.28;;;0.80;;
73283;SDS011;61519;60.050;18.582;2024-03-08T11:25:58;2.17;;;0.80;;
73283;SDS011;61519;60.050;18.582;2024-03-08T11:28:24;2.40;;;1.17;;
73283;SDS011;61519;60.050;18.582;2024-03-08T11:33:26;3.73;;;1.20;;
73283;SDS011;61519;60.050;18.582;2024-03-08T11:36:02;2.42;;;0.90;;
73283;SDS011;61519;60.050;18.582;2024-03-08T11:38:45;2.25;;;0.90;;
73283;SDS011;61519;60.050;18.582;2024-03-08T11:41:18;5.03;;;1.23;;
73283;SDS011;61519;60.050;18.582;2024-03-08T11:43:45;2.10;;;0.93;;
73283;SDS011;61519;60.050;18.582;2024-03-08T11:46:11;3.22;;;1.45;;
73283;SDS011;61519;60.050;18.582;2024-03-08T11:48:40;2.92;;;1.35;;
73283;SDS011;61519;60.050;18.582;2024-03-08T11:51:12;2.00;;;0.90;;
73283;SDS011;61519;60.050;18.582;2024-03-08T11:53:39;1.90;;;0.70;;
73283;SDS011;61519;60.050;18.582;2024-03-08T11:56:09;2.47;;;0.80;;
73283;SDS011;61519;60.050;18.582;2024-03-08T11:58:36;2.70;;;1.10;;
73283;SDS011;61519;60.050;18.582;2024-03-08T12:01:05;2.10;;;0.80;;
73283;SDS011;61519;60.050;18.582;2024-03-08T12:03:32;1.80;;;0.90;;
73283;SDS011;61519;60.050;18.582;2024-03-08T12:06:00;2.83;;;0.77;;
73283;SDS011;61519;60.050;18.582;2024-03-08T12:08:27;2.47;;;0.80;;
73283;SDS011;61519;60.050;18.582;2024-03-08T12:10:53;2.83;;;0.85;;
73283;SDS011;61519;60.050;18.582;2024-03-08T12:13:24;2.40;;;0.80;;
73283;SDS011;61519;60.050;18.582;2024-03-08T12:15:55;1.90;;;0.77;;
73283;SDS011;61519;60.050;18.582;2024-03-08T12:18:23;2.03;;;0.63;;
73283;SDS011;61519;60.050;18.582;2024-03-08T12:20:49;2.60;;;0.77;;
73283;SDS011;61519;60.050;18.582;2024-03-08T12:23:15;3.47;;;1.55;;
73283;SDS011;61519;60.050;18.582;2024-03-08T12:25:41;4.80;;;1.65;;
73283;SDS011;61519;60.050;18.582;2024-03-08T12:28:11;3.83;;;1.70;;
73283;SDS011;61519;60.050;18.582;2024-03-08T12:30:51;3.83;;;1.50;;
73283;SDS011;61519;60.050;18.582;2024-03-08T12:33:19;4.63;;;1.38;;
73283;SDS011;61519;60.050;18.582;2024-03-08T12:35:51;3.05;;;1.25;;
73283;SDS011;61519;60.050;18.582;2024-03-08T12:38:19;5.65;;;1.55;;
73283;SDS011;61519;60.050;18.582;2024-03-08T12:40:49;4.23;;;1.10;;
73283;SDS011;61519;60.050;18.582;2024-03-08T12:43:15;2.20;;;0.80;;
73283;SDS011;61519;60.050;18.582;2024-03-08T12:45:41;3.00;;;1.17;;
73283;SDS011;61519;60.050;18.582;2024-03-08T12:48:12;1.95;;;0.75;;
73283;SDS011;61519;60.050;18.582;2024-03-08T12:50:42;2.10;;;0.70;;
73283;SDS011;61519;60.050;18.582;2024-03-08T12:53:10;2.50;;;1.00;;
73283;SDS011;61519;60.050;18.582;2024-03-08T12:55:36;6.60;;;1.42;;
73283;SDS011;61519;60.050;18.582;2024-03-08T12:58:01;19.03;;;6.83;;
73283;SDS011;61519;60.050;18.582;2024-03-08T13:00:27;10.53;;;3.67;;
73283;SDS011;61519;60.050;18.582;2024-03-08T13:02:53;9.23;;;2.55;;
73283;SDS011;61519;60.050;18.582;2024-03-08T13:05:18;4.70;;;1.83;;
73283;SDS011;61519;60.050;18.582;2024-03-08T13:07:45;5.43;;;1.00;;
73283;SDS011;61519;60.050;18.582;2024-03-08T13:10:15;7.63;;;1.20;;
73283;SDS011;61519;60.050;18.582;2024-03-08T13:12:41;2.80;;;0.90;;
73283;SDS011;61519;60.050;18.582;2024-03-08T13:15:10;4.95;;;1.17;;
73283;SDS011;61519;60.050;18.582;2024-03-08T13:17:40;1.92;;;0.70;;
73283;SDS011;61519;60.050;18.582;2024-03-08T13:20:06;2.83;;;0.88;;
73283;SDS011;61519;60.050;18.582;2024-03-08T13:22:32;1.87;;;0.80;;
73283;SDS011;61519;60.050;18.582;2024-03-08T13:24:58;2.95;;;0.60;;
73283;SDS011;61519;60.050;18.582;2024-03-08T13:27:26;3.50;;;0.70;;
73283;SDS011;61519;60.050;18.582;2024-03-08T13:29:52;1.95;;;0.70;;
73283;SDS011;61519;60.050;18.582;2024-03-08T13:32:17;1.97;;;0.60;;
73283;SDS011;61519;60.050;18.582;2024-03-08T13:34:45;5.45;;;0.60;;
73283;SDS011;61519;60.050;18.582;2024-03-08T13:37:12;1.77;;;0.70;;
73283;SDS011;61519;60.050;18.582;2024-03-08T13:39:40;2.08;;;0.60;;
73283;SDS011;61519;60.050;18.582;2024-03-08T13:42:08;1.67;;;0.60;;
73283;SDS011;61519;60.050;18.582;2024-03-08T13:44:47;2.33;;;0.82;;
73283;SDS011;61519;60.050;18.582;2024-03-08T13:47:15;2.30;;;0.70;;
73283;SDS011;61519;60.050;18.582;2024-03-08T13:49:42;2.25;;;0.80;;
73283;SDS011;61519;60.050;18.582;2024-03-08T13:52:08;2.83;;;1.00;;
73283;SDS011;61519;60.050;18.582;2024-03-08T13:54:34;2.60;;;0.77;;
73283;SDS011;61519;60.050;18.582;2024-03-08T13:57:00;3.45;;;0.70;;
73283;SDS011;61519;60.050;18.582;2024-03-08T13:59:28;2.70;;;0.82;;
73283;SDS011;61519;60.050;18.582;2024-03-08T14:01:55;2.08;;;1.08;;
73283;SDS011;61519;60.050;18.582;2024-03-08T14:04:22;1.93;;;0.60;;
73283;SDS011;61519;60.050;18.582;2024-03-08T14:06:47;1.80;;;0.70;;
73283;SDS011;61519;60.050;18.582;2024-03-08T14:09:14;3.47;;;0.77;;
73283;SDS011;61519;60.050;18.582;2024-03-08T14:11:45;2.40;;;0.80;;
73283;SDS011;61519;60.050;18.582;2024-03-08T14:14:11;1.92;;;0.68;;
73283;SDS011;61519;60.050;18.582;2024-03-08T14:16:39;1.53;;;0.60;;
73283;SDS011;61519;60.050;18.582;2024-03-08T14:19:05;1.73;;;0.67;;
73283;SDS011;61519;60.050;18.582;2024-03-08T14:21:31;1.67;;;0.68;;
73283;SDS011;61519;60.050;18.582;2024-03-08T14:23:56;2.13;;;0.60;;
73283;SDS011;61519;60.050;18.582;2024-03-08T14:26:22;1.77;;;0.60;;
73283;SDS011;61519;60.050;18.582;2024-03-08T14:28:47;2.50;;;0.95;;
73283;SDS011;61519;60.050;18.582;2024-03-08T14:31:15;1.98;;;0.75;;
73283;SDS011;61519;60.050;18.582;2024-03-08T14:33:44;2.90;;;0.82;;
73283;SDS011;61519;60.050;18.582;2024-03-08T14:36:13;2.42;;;1.33;;
73283;SDS011;61519;60.050;18.582;2024-03-08T14:38:39;2.43;;;0.80;;
73283;SDS011;61519;60.050;18.582;2024-03-08T14:41:04;2.23;;;0.83;;
73283;SDS011;61519;60.050;18.582;2024-03-08T14:43:32;3.38;;;1.67;;
73283;SDS011;61519;60.050;18.582;2024-03-08T14:45:57;2.00;;;0.70;;